createdAt,value
2022-11-18T00:02:31.274Z,42.20
2022-11-18T00:05:34.550Z,45.10
2022-11-18T00:08:37.530Z,43.17
2022-11-18T00:11:59.165Z,43.35
2022-11-18T00:15:01.928Z,44.17
2022-11-18T00:18:07.561Z,42.92
2022-11-18T00:21:12.324Z,46.90
2022-11-18T00:24:15.603Z,41.53
2022-11-18T00:27:21.002Z,44.38
2022-11-18T00:30:25.108Z,45.33
2022-11-18T00:33:27.994Z,44.97
2022-11-18T00:36:31.221Z,44.10
2022-11-18T00:39:34.047Z,42.78
2022-11-18T00:42:52.276Z,40.12
2022-11-18T00:45:54.787Z,44.47
2022-11-18T00:48:57.501Z,40.85
2022-11-18T00:52:01.722Z,45.90
2022-11-18T00:55:05.576Z,44.53
2022-11-18T00:58:08.079Z,45.08
2022-11-18T01:01:11.549Z,47.63
2022-11-18T01:04:15.879Z,44.85
2022-11-18T01:07:20.137Z,50.35
2022-11-18T01:10:23.443Z,43.30
2022-11-18T01:13:29.542Z,45.97
2022-11-18T01:16:35.690Z,42.50
2022-11-18T01:19:39.334Z,46.47
2022-11-18T01:22:42.104Z,46.90
2022-11-18T01:25:48.643Z,52.30
2022-11-18T01:28:55.480Z,49.55
2022-11-18T01:35:21.509Z,56.63
2022-11-18T01:38:25.218Z,61.33
2022-11-18T01:41:27.864Z,59.10
2022-11-18T01:44:56.551Z,55.78
2022-11-18T01:48:02.890Z,56.93
2022-11-18T01:51:11.103Z,61.25
2022-11-18T01:54:20.264Z,54.53
2022-11-18T01:57:27.763Z,59.20
2022-11-18T02:00:31.042Z,53.35
2022-11-18T02:03:35.191Z,50.10
2022-11-18T02:06:38.436Z,49.78
2022-11-18T02:09:41.165Z,50.50
2022-11-18T02:12:44.759Z,46.42
2022-11-18T02:15:47.665Z,47.30
2022-11-18T02:19:00.200Z,49.80
2022-11-18T02:22:48.934Z,45.83
2022-11-18T02:26:27.249Z,46.67
2022-11-18T02:29:43.067Z,44.70
2022-11-18T02:33:07.901Z,46.70
2022-11-18T02:36:22.135Z,46.10
2022-11-18T02:39:44.090Z,43.17
2022-11-18T02:42:52.443Z,41.05
2022-11-18T02:46:01.965Z,49.03
2022-11-18T02:49:11.283Z,44.00
2022-11-18T02:52:16.933Z,45.20
2022-11-18T02:55:22.106Z,44.95
2022-11-18T02:58:26.107Z,49.92
2022-11-18T03:01:30.923Z,50.45
2022-11-18T03:04:35.337Z,50.03
2022-11-18T03:07:41.668Z,46.63
2022-11-18T03:10:58.299Z,53.15
2022-11-18T03:14:28.637Z,49.20
2022-11-18T03:17:53.637Z,45.25
2022-11-18T03:21:12.163Z,45.60
2022-11-18T03:24:24.299Z,48.93
2022-11-18T03:27:35.775Z,41.70
2022-11-18T03:30:44.675Z,46.83
2022-11-18T03:33:54.768Z,45.22
2022-11-18T03:37:04.193Z,46.22
2022-11-18T03:40:17.595Z,40.90
2022-11-18T03:43:25.554Z,46.28
2022-11-18T03:46:46.839Z,39.72
2022-11-18T03:49:58.676Z,44.53
2022-11-18T03:53:03.259Z,43.58
2022-11-18T03:56:17.151Z,42.90
2022-11-18T03:59:31.662Z,40.00
2022-11-18T04:02:35.557Z,46.30
2022-11-18T04:05:42.618Z,44.45
2022-11-18T04:08:51.827Z,47.33
2022-11-18T04:12:06.017Z,42.63
2022-11-18T04:15:09.245Z,46.78
2022-11-18T04:18:12.226Z,48.42
2022-11-18T04:21:15.487Z,46.28
2022-11-18T04:24:18.334Z,50.45
2022-11-18T04:27:21.391Z,51.77
2022-11-18T04:30:24.821Z,48.92
2022-11-18T04:33:28.778Z,54.95
2022-11-18T04:36:32.329Z,53.53
2022-11-18T04:39:35.496Z,55.92
2022-11-18T04:42:40.166Z,56.47
2022-11-18T04:45:43.031Z,56.65
2022-11-18T04:48:59.785Z,60.40
2022-11-18T04:52:03.217Z,58.97
2022-11-18T04:55:06.511Z,52.55
2022-11-18T04:58:09.433Z,54.33
2022-11-18T05:01:13.689Z,55.03
2022-11-18T05:04:27.138Z,55.17
2022-11-18T05:07:30.382Z,56.03
2022-11-18T05:10:33.669Z,58.35
2022-11-18T05:13:39.291Z,64.77
2022-11-18T05:16:43.704Z,58.53
2022-11-18T05:19:47.260Z,59.58
2022-11-18T05:22:49.999Z,63.70
2022-11-18T05:25:57.028Z,66.82
2022-11-18T05:29:03.991Z,63.67
2022-11-18T05:32:08.280Z,61.08
2022-11-18T05:35:12.161Z,66.35
2022-11-18T05:38:15.894Z,62.92
2022-11-18T05:41:40.624Z,70.20
2022-11-18T05:44:44.547Z,82.17
2022-11-18T05:48:05.757Z,71.72
2022-11-18T05:51:10.273Z,72.35
2022-11-18T05:54:19.933Z,70.07
2022-11-18T05:57:23.214Z,62.65
2022-11-18T06:00:28.725Z,65.97
2022-11-18T06:03:36.158Z,74.60
2022-11-18T06:06:39.956Z,57.75
2022-11-18T06:09:51.982Z,56.97
2022-11-18T06:13:05.676Z,73.12
2022-11-18T06:16:13.155Z,56.80
2022-11-18T06:19:19.305Z,59.33
2022-11-18T06:22:22.768Z,57.25
2022-11-18T06:25:29.920Z,54.80
2022-11-18T06:28:33.951Z,61.00
2022-11-18T06:31:36.921Z,64.77
2022-11-18T06:34:41.989Z,69.62
2022-11-18T06:37:45.987Z,63.63
2022-11-18T06:40:52.984Z,71.12
2022-11-18T06:43:55.960Z,77.97
2022-11-18T06:47:02.722Z,60.60
2022-11-18T06:50:06.067Z,61.67
2022-11-18T06:53:09.158Z,84.68
2022-11-18T06:56:22.732Z,73.15
2022-11-18T06:59:26.977Z,69.90
2022-11-18T07:02:36.581Z,97.97
2022-11-18T07:05:42.992Z,103.12
2022-11-18T07:08:47.132Z,69.85
2022-11-18T07:11:50.888Z,73.68
2022-11-18T07:14:54.772Z,75.30
2022-11-18T07:18:06.726Z,81.67
2022-11-18T07:21:15.200Z,73.30
2022-11-18T07:24:19.847Z,71.30
2022-11-18T07:27:22.377Z,75.80
2022-11-18T07:30:33.213Z,58.50
2022-11-18T07:33:37.895Z,46.00
2022-11-18T07:36:46.727Z,41.65
2022-11-18T07:39:50.270Z,43.47
2022-11-18T07:42:55.191Z,42.67
2022-11-18T07:45:58.578Z,45.50
2022-11-18T07:49:05.557Z,40.33
2022-11-18T07:52:09.076Z,45.63
2022-11-18T07:55:12.557Z,42.17
2022-11-18T07:58:16.308Z,39.78
2022-11-18T08:01:32.786Z,44.03
2022-11-18T08:04:48.888Z,42.77
2022-11-18T08:07:53.183Z,36.63
2022-11-18T08:10:58.922Z,34.15
2022-11-18T08:14:02.254Z,33.65
2022-11-18T08:17:06.980Z,38.13
2022-11-18T08:20:11.743Z,41.33
2022-11-18T08:23:16.727Z,41.08
2022-11-18T08:26:20.885Z,38.28
2022-11-18T08:29:25.736Z,36.55
2022-11-18T08:32:30.900Z,38.90
2022-11-18T08:35:34.418Z,35.00
2022-11-18T08:38:38.816Z,33.90
2022-11-18T08:41:43.953Z,36.50
2022-11-18T08:44:46.954Z,35.05
2022-11-18T08:47:49.742Z,32.53
2022-11-18T08:51:01.703Z,31.30
2022-11-18T08:54:05.241Z,30.95
2022-11-18T08:57:11.118Z,29.87
2022-11-18T09:00:16.699Z,35.25
2022-11-18T09:03:20.556Z,26.85
2022-11-18T09:06:25.163Z,32.03
2022-11-18T09:09:29.477Z,31.58
2022-11-18T09:12:33.598Z,32.08
2022-11-18T09:15:37.468Z,32.10
2022-11-18T09:18:41.291Z,31.23
2022-11-18T09:21:53.287Z,31.57
2022-11-18T09:24:58.269Z,26.35
2022-11-18T09:28:02.577Z,30.95
2022-11-18T09:31:09.064Z,30.75
2022-11-18T09:34:13.543Z,36.40
2022-11-18T09:37:17.461Z,40.30
2022-11-18T09:40:35.800Z,29.35
2022-11-18T09:43:54.016Z,27.35
2022-11-18T09:47:03.967Z,29.08
2022-11-18T09:50:47.781Z,28.83
2022-11-18T09:53:42.953Z,28.30
2022-11-18T09:56:55.703Z,24.83
2022-11-18T10:00:01.809Z,25.60
2022-11-18T10:03:20.678Z,31.02
2022-11-18T10:06:31.572Z,26.12
2022-11-18T10:09:47.745Z,25.10
2022-11-18T10:13:02.952Z,25.27
2022-11-18T10:16:51.708Z,29.87
2022-11-18T10:20:26.735Z,32.30
2022-11-18T10:24:10.780Z,27.08
2022-11-18T10:27:18.856Z,29.03
2022-11-18T10:30:27.730Z,25.90
2022-11-18T10:33:32.891Z,26.02
2022-11-18T10:36:39.754Z,30.67
2022-11-18T10:40:24.854Z,27.58
2022-11-18T10:43:49.190Z,29.13
2022-11-18T10:46:53.724Z,27.23
2022-11-18T10:50:03.732Z,27.50
2022-11-18T10:53:31.786Z,24.58
2022-11-18T10:57:07.669Z,23.83
2022-11-18T11:00:36.327Z,26.27
2022-11-18T11:03:42.265Z,24.30
2022-11-18T11:06:47.759Z,21.85
2022-11-18T11:10:18.108Z,23.95
2022-11-18T11:13:23.969Z,25.08
2022-11-18T11:16:30.835Z,21.23
2022-11-18T11:19:57.357Z,21.98
2022-11-18T11:23:01.141Z,24.50
2022-11-18T11:30:08.110Z,23.10
2022-11-18T11:33:19.710Z,25.37
2022-11-18T11:36:39.791Z,30.17
2022-11-18T11:39:54.587Z,25.35
2022-11-18T11:43:19.883Z,25.48
2022-11-18T11:46:35.801Z,23.92
2022-11-18T11:49:53.621Z,23.50
2022-11-18T11:53:06.701Z,18.92
2022-11-18T11:56:32.867Z,21.85
2022-11-18T11:59:51.760Z,17.77
2022-11-18T12:02:58.777Z,20.73
2022-11-18T12:06:02.119Z,17.43
2022-11-18T12:09:33.754Z,15.90
2022-11-18T12:12:55.321Z,28.25
2022-11-18T12:16:16.075Z,27.77
2022-11-18T12:19:22.181Z,21.57
2022-11-18T12:23:03.287Z,20.17
2022-11-18T12:26:32.970Z,16.12
2022-11-18T12:29:50.287Z,17.98
2022-11-18T12:33:02.184Z,18.35
2022-11-18T12:36:27.121Z,18.97
2022-11-18T12:39:49.133Z,16.67
2022-11-18T12:43:15.711Z,20.08
2022-11-18T12:46:50.717Z,16.20
2022-11-18T12:49:59.524Z,15.13
2022-11-18T12:53:05.697Z,19.73
2022-11-18T12:56:19.080Z,14.80
2022-11-18T12:59:35.388Z,15.73
2022-11-18T13:02:45.580Z,15.82
2022-11-18T13:05:52.749Z,17.05
2022-11-18T13:09:05.391Z,18.43
2022-11-18T13:12:20.047Z,24.40
2022-11-18T13:15:48.471Z,39.42
2022-11-18T13:18:58.000Z,59.05
2022-11-18T13:22:21.196Z,51.42
2022-11-18T13:25:28.673Z,41.57
2022-11-18T13:28:48.505Z,41.87
2022-11-18T13:32:22.556Z,22.23
2022-11-18T13:35:27.650Z,16.35
2022-11-18T13:38:32.045Z,18.73
2022-11-18T13:41:35.985Z,17.37
2022-11-18T13:44:52.587Z,15.77
2022-11-18T13:48:11.037Z,13.90
2022-11-18T13:51:25.694Z,14.13
2022-11-18T13:54:43.658Z,15.68
2022-11-18T13:57:53.276Z,17.67
2022-11-18T14:01:02.011Z,19.00
2022-11-18T14:04:26.754Z,18.08
2022-11-18T14:07:47.621Z,29.37
2022-11-18T14:11:00.663Z,20.88
2022-11-18T14:14:08.589Z,16.57
2022-11-18T14:17:21.948Z,12.83
2022-11-18T14:20:28.966Z,16.90
2022-11-18T14:23:38.841Z,17.12
2022-11-18T14:26:46.861Z,21.67
2022-11-18T14:29:56.657Z,27.23
2022-11-18T14:33:11.296Z,20.43
2022-11-18T14:36:22.989Z,18.23
2022-11-18T14:39:35.078Z,16.65
2022-11-18T14:42:46.626Z,18.15
2022-11-18T14:45:59.703Z,16.97
2022-11-18T14:49:14.370Z,18.30
2022-11-18T14:52:18.724Z,15.32
2022-11-18T14:55:25.006Z,15.40
2022-11-18T14:58:33.905Z,18.98
2022-11-18T15:01:47.290Z,17.70
2022-11-18T15:04:55.761Z,15.03
2022-11-18T15:08:02.205Z,15.98
2022-11-18T15:11:07.318Z,19.33
2022-11-18T15:14:17.147Z,20.88
2022-11-18T15:17:22.498Z,36.33
2022-11-18T15:20:32.580Z,18.00
2022-11-18T15:23:43.651Z,19.58
2022-11-18T15:26:53.469Z,28.45
2022-11-18T15:30:15.624Z,25.27
2022-11-18T15:33:23.677Z,24.20
2022-11-18T15:36:29.657Z,20.70
2022-11-18T15:39:40.850Z,22.95
2022-11-18T15:42:51.855Z,17.42
2022-11-18T15:45:59.317Z,16.37
2022-11-18T15:49:04.841Z,21.00
2022-11-18T15:52:15.221Z,21.43
2022-11-18T15:55:23.716Z,18.73
2022-11-18T15:58:39.836Z,17.25
2022-11-18T16:01:54.069Z,16.98
2022-11-18T16:05:04.670Z,18.23
2022-11-18T16:08:13.067Z,20.53
2022-11-18T16:11:47.668Z,24.83
2022-11-18T16:15:21.678Z,26.55
2022-11-18T16:18:25.831Z,22.85
2022-11-18T16:21:34.955Z,29.93
2022-11-18T16:24:48.168Z,35.27
2022-11-18T16:28:05.432Z,34.40
2022-11-18T16:31:42.595Z,66.18
2022-11-18T16:34:55.271Z,42.33
2022-11-18T16:38:10.729Z,26.10
2022-11-18T16:41:33.686Z,22.10
2022-11-18T16:44:43.856Z,27.20
2022-11-18T16:47:49.242Z,45.88
2022-11-18T16:51:18.771Z,52.20
2022-11-18T16:54:24.651Z,45.77
2022-11-18T16:57:37.553Z,30.87
2022-11-18T17:01:17.726Z,26.20
2022-11-18T17:04:19.856Z,25.23
2022-11-18T17:07:26.779Z,25.88
2022-11-18T17:10:30.876Z,30.40
2022-11-18T17:13:43.675Z,24.10
2022-11-18T17:16:47.917Z,29.25
2022-11-18T17:20:02.890Z,32.40
2022-11-18T17:23:16.880Z,42.17
2022-11-18T17:26:25.797Z,39.00
2022-11-18T17:29:39.706Z,34.17
2022-11-18T17:32:46.129Z,35.20
2022-11-18T17:36:09.707Z,34.88
2022-11-18T17:39:15.986Z,33.40
2022-11-18T17:42:27.628Z,33.03
2022-11-18T17:45:42.844Z,34.47
2022-11-18T17:48:48.685Z,34.05
2022-11-18T17:52:01.322Z,31.10
2022-11-18T17:55:11.660Z,27.55
2022-11-18T17:58:16.064Z,26.43
2022-11-18T18:01:21.705Z,28.60
2022-11-18T18:04:34.103Z,27.02
2022-11-18T18:07:57.808Z,27.83
2022-11-18T18:11:10.790Z,31.55
2022-11-18T18:14:22.693Z,27.30
2022-11-18T18:17:41.098Z,28.10
2022-11-18T18:20:46.659Z,31.23
2022-11-18T18:23:58.725Z,29.00
2022-11-18T18:27:07.842Z,30.15
2022-11-18T18:30:15.736Z,31.53
2022-11-18T18:33:23.546Z,34.00
2022-11-18T18:36:34.895Z,33.83
2022-11-18T18:39:41.659Z,32.58
2022-11-18T18:43:02.670Z,49.17
2022-11-18T18:46:36.618Z,49.27
2022-11-18T18:49:40.637Z,63.13
2022-11-18T18:52:45.703Z,60.80
2022-11-18T18:55:56.576Z,41.15
2022-11-18T18:59:00.162Z,40.67
2022-11-18T19:02:11.727Z,35.97
2022-11-18T19:05:51.833Z,40.90
2022-11-18T19:08:57.704Z,38.70
2022-11-18T19:12:29.711Z,39.50
2022-11-18T19:15:40.102Z,39.30
2022-11-18T19:18:44.234Z,41.40
2022-11-18T19:22:01.885Z,38.43
2022-11-18T19:25:09.656Z,40.85
2022-11-18T19:28:13.040Z,37.28
2022-11-18T19:31:20.731Z,39.42
2022-11-18T19:34:32.781Z,38.90
2022-11-18T19:37:42.688Z,39.90
2022-11-18T19:40:59.030Z,39.58
2022-11-18T19:44:05.109Z,42.47
2022-11-18T19:47:09.016Z,43.60
2022-11-18T19:50:18.703Z,42.73
2022-11-18T19:53:33.041Z,45.57
2022-11-18T19:56:51.682Z,46.58
2022-11-18T20:00:04.670Z,44.08
2022-11-18T20:03:13.156Z,48.15
2022-11-18T20:06:20.250Z,46.60
2022-11-18T20:09:26.900Z,41.77
2022-11-18T20:12:33.858Z,42.03
2022-11-18T20:15:38.723Z,40.35
2022-11-18T20:18:49.988Z,34.45
2022-11-18T20:21:55.096Z,32.87
2022-11-18T20:24:58.786Z,31.37
2022-11-18T20:28:13.389Z,31.95
2022-11-18T20:31:23.640Z,30.45
2022-11-18T20:34:28.169Z,29.00
2022-11-18T20:37:34.841Z,32.97
2022-11-18T20:40:40.261Z,27.77
2022-11-18T20:43:51.656Z,27.40
2022-11-18T20:47:01.723Z,22.23
2022-11-18T20:50:13.577Z,18.67
2022-11-18T20:53:39.684Z,17.80
2022-11-18T20:56:51.597Z,16.27
2022-11-18T20:59:57.178Z,18.80
2022-11-18T21:03:14.744Z,15.40
2022-11-18T21:06:19.655Z,17.12
2022-11-18T21:09:24.503Z,14.83
2022-11-18T21:12:29.752Z,15.90
2022-11-18T21:15:35.789Z,15.73
2022-11-18T21:18:39.116Z,15.90
2022-11-18T21:21:54.948Z,14.68
2022-11-18T21:24:57.739Z,14.47
2022-11-18T21:28:02.014Z,13.80
2022-11-18T21:31:13.045Z,12.88
2022-11-18T21:34:24.713Z,14.52
2022-11-18T21:37:33.453Z,11.18
2022-11-18T21:40:38.848Z,11.83
2022-11-18T21:44:04.465Z,11.10
2022-11-18T21:47:08.654Z,12.27
2022-11-18T21:50:26.511Z,11.73
2022-11-18T21:53:34.021Z,10.18
2022-11-18T21:56:38.367Z,12.83
2022-11-18T21:59:47.791Z,12.03
2022-11-18T22:02:50.848Z,14.07
2022-11-18T22:05:55.246Z,12.40
2022-11-18T22:08:58.219Z,12.90
2022-11-18T22:12:02.814Z,12.73
2022-11-18T22:15:09.666Z,14.23
2022-11-18T22:18:25.132Z,10.65
2022-11-18T22:21:28.851Z,12.07
2022-11-18T22:24:35.041Z,12.00
2022-11-18T22:27:37.825Z,11.90
2022-11-18T22:30:48.582Z,11.80
2022-11-18T22:33:53.120Z,12.13
2022-11-18T22:36:59.659Z,14.82
2022-11-18T22:40:02.772Z,12.52
2022-11-18T22:43:07.092Z,12.20
2022-11-18T22:46:12.576Z,11.00
2022-11-18T22:49:19.865Z,12.50
2022-11-18T22:52:24.256Z,12.23
2022-11-18T22:55:27.922Z,12.55
2022-11-18T22:58:33.433Z,12.83
2022-11-18T23:01:38.047Z,11.97
2022-11-18T23:04:40.729Z,13.50
2022-11-18T23:07:45.237Z,14.73
2022-11-18T23:10:48.723Z,12.85
2022-11-18T23:14:03.929Z,13.63
2022-11-18T23:17:08.914Z,13.40
2022-11-18T23:20:12.120Z,13.60
2022-11-18T23:23:15.020Z,12.40
2022-11-18T23:26:18.976Z,13.50
2022-11-18T23:29:22.866Z,13.97
2022-11-18T23:32:26.517Z,14.83
2022-11-18T23:35:33.561Z,14.57
2022-11-18T23:38:37.094Z,14.43
2022-11-18T23:41:40.501Z,15.25
2022-11-18T23:44:46.322Z,15.10
2022-11-18T23:47:50.094Z,15.60
2022-11-18T23:50:54.926Z,13.15
2022-11-18T23:53:57.784Z,17.42
2022-11-18T23:57:01.352Z,14.57
